createdAt,value
2023-02-23T00:01:04.482Z,9.13
2023-02-23T00:06:13.493Z,9.19
2023-02-23T00:11:22.577Z,9.06
2023-02-23T00:16:31.452Z,9.06
2023-02-23T00:21:40.537Z,9.13
2023-02-23T00:26:49.475Z,9.13
2023-02-23T00:31:58.753Z,9.06
2023-02-23T00:37:07.803Z,9.06
2023-02-23T00:42:16.723Z,9.06
2023-02-23T00:47:25.704Z,9
2023-02-23T00:52:34.792Z,9
2023-02-23T00:57:43.772Z,9
2023-02-23T01:02:52.670Z,9
2023-02-23T01:08:01.776Z,9
2023-02-23T01:13:10.644Z,9
2023-02-23T01:18:19.588Z,9
2023-02-23T01:23:28.805Z,8.94
2023-02-23T01:28:37.652Z,8.88
2023-02-23T01:33:46.680Z,8.88
2023-02-23T01:38:55.714Z,8.94
2023-02-23T01:44:04.664Z,8.88
2023-02-23T01:49:13.598Z,8.81
2023-02-23T01:54:22.618Z,8.81
2023-02-23T01:59:31.669Z,8.81
2023-02-23T02:04:40.690Z,8.81
2023-02-23T02:09:49.583Z,8.81
2023-02-23T02:14:58.348Z,8.75
2023-02-23T02:20:07.439Z,8.81
2023-02-23T02:30:14.584Z,8.94
2023-02-23T02:35:23.664Z,8.94
2023-02-23T02:40:32.525Z,9
2023-02-23T03:00:36.417Z,9
2023-02-23T03:05:45.465Z,9
2023-02-23T03:10:54.545Z,9
2023-02-23T03:21:12.636Z,8.88
2023-02-23T03:26:21.251Z,8.94
2023-02-23T03:31:30.393Z,8.94
2023-02-23T03:36:39.384Z,8.94
2023-02-23T03:41:48.629Z,8.94
2023-02-23T03:46:57.733Z,8.94
2023-02-23T03:57:15.706Z,8.88
2023-02-23T04:02:24.490Z,8.81
2023-02-23T04:07:36.394Z,8.88
2023-02-23T04:12:45.354Z,8.88
2023-02-23T04:17:54.348Z,8.94
2023-02-23T04:23:03.253Z,8.94
2023-02-23T04:28:12.194Z,9
2023-02-23T04:33:21.470Z,9.06
2023-02-23T04:38:30.583Z,9.06
2023-02-23T04:43:39.364Z,9.06
2023-02-23T04:48:48.420Z,9.13
2023-02-23T04:53:57.412Z,9.13
2023-02-23T04:59:06.414Z,9.13
2023-02-23T05:04:15.441Z,9.13
2023-02-23T05:09:24.370Z,9.19
2023-02-23T05:14:33.363Z,9.19
2023-02-23T05:19:42.323Z,9.19
2023-02-23T05:24:51.306Z,9.19
2023-02-23T05:30:03.179Z,9.19
2023-02-23T05:35:12.183Z,9.13
2023-02-23T05:40:21.284Z,9.13
2023-02-23T05:45:30.563Z,9.13
2023-02-23T05:50:39.330Z,9.06
2023-02-23T05:55:48.540Z,8.94
2023-02-23T06:05:55.275Z,8.81
2023-02-23T06:11:04.185Z,8.75
2023-02-23T06:16:13.239Z,8.69
2023-02-23T06:21:22.170Z,8.63
2023-02-23T06:26:31.139Z,8.63
2023-02-23T06:31:40.296Z,8.69
2023-02-23T06:36:49.146Z,8.75
2023-02-23T06:41:58.238Z,8.88
2023-02-23T06:47:07.254Z,8.88
2023-02-23T06:52:16.217Z,8.94
2023-02-23T06:57:25.205Z,9
2023-02-23T07:02:34.250Z,9.06
2023-02-23T07:12:52.511Z,9.25
2023-02-23T07:18:01.463Z,9.31
2023-02-23T07:23:10.391Z,9.38
2023-02-23T07:28:19.475Z,9.44
2023-02-23T07:33:28.484Z,9.5
2023-02-23T07:43:35.836Z,9.56
2023-02-23T07:48:44.907Z,9.63
2023-02-23T07:53:53.911Z,9.75
2023-02-23T08:04:12.271Z,9.81
2023-02-23T08:09:21.055Z,9.88
2023-02-23T08:14:29.940Z,9.94
2023-02-23T08:19:39.091Z,10.13
2023-02-23T08:24:48.353Z,10.19
2023-02-23T08:29:57.839Z,10.44
2023-02-23T08:35:06.991Z,10.63
2023-02-23T08:40:16.114Z,10.81
2023-02-23T08:45:25.146Z,10.63
2023-02-23T08:50:34.045Z,10.88
2023-02-23T08:55:43.243Z,11.31
2023-02-23T09:06:01.293Z,11.31
2023-02-23T09:11:10.235Z,11.38
2023-02-23T09:16:19.380Z,11.31
2023-02-23T09:21:29.227Z,12.37
2023-02-23T09:26:38.927Z,12.88
2023-02-23T09:31:48.840Z,13.94
2023-02-23T09:36:57.989Z,14.5
2023-02-23T09:42:06.353Z,14.19
2023-02-23T09:47:14.673Z,12.13
2023-02-23T09:52:23.362Z,12.25
2023-02-23T09:57:31.999Z,12.44
2023-02-23T10:02:41.137Z,12.31
2023-02-23T10:07:49.980Z,12.25
2023-02-23T10:12:58.560Z,12.25
2023-02-23T10:18:07.742Z,12.69
2023-02-23T10:23:17.070Z,12.94
2023-02-23T10:28:27.234Z,13.56
2023-02-23T10:33:36.211Z,13.62
2023-02-23T10:38:45.122Z,13.44
2023-02-23T10:43:53.584Z,13.19
2023-02-23T10:49:02.537Z,12.94
2023-02-23T10:54:11.515Z,12.88
2023-02-23T10:59:20.755Z,13.25
2023-02-23T11:04:29.855Z,13.56
2023-02-23T11:09:46.927Z,14.56
2023-02-23T11:14:49.369Z,15.38
2023-02-23T11:19:58.186Z,15.56
2023-02-23T11:25:06.599Z,15
2023-02-23T11:30:15.354Z,15.31
2023-02-23T11:35:24.656Z,15.5
2023-02-23T11:45:34.139Z,17.06
2023-02-23T11:50:43.427Z,17.62
2023-02-23T11:55:51.867Z,15.94
2023-02-23T12:01:00.128Z,14.5
2023-02-23T12:06:08.741Z,14
2023-02-23T12:11:17.334Z,13.81
2023-02-23T12:16:29.683Z,15.31
2023-02-23T12:21:39.701Z,17.25
2023-02-23T12:26:48.821Z,17
2023-02-23T12:31:58.577Z,16.94
2023-02-23T12:37:07.595Z,17.81
2023-02-23T12:42:16.724Z,17.94
2023-02-23T12:47:26.062Z,18.19
2023-02-23T12:52:34.826Z,17.69
2023-02-23T12:57:43.966Z,17.94
2023-02-23T13:02:52.773Z,17.69
2023-02-23T13:08:11.492Z,16.31
2023-02-23T13:13:08.996Z,15.25
2023-02-23T13:18:17.625Z,14.87
2023-02-23T13:23:26.270Z,14.31
2023-02-23T13:28:35.016Z,14.06
2023-02-23T13:33:44.629Z,14
2023-02-23T13:38:52.905Z,14.06
2023-02-23T13:49:10.810Z,14.19
2023-02-23T13:54:19.732Z,13.88
2023-02-23T13:59:28.683Z,13.94
2023-02-23T14:04:37.780Z,13.94
2023-02-23T14:09:46.692Z,13.94
2023-02-23T14:14:55.717Z,13.94
2023-02-23T14:20:06.469Z,13.62
2023-02-23T14:25:13.467Z,13.62
2023-02-23T14:30:22.302Z,13.56
2023-02-23T14:35:31.482Z,13.75
2023-02-23T14:40:40.679Z,13.88
2023-02-23T14:45:49.803Z,13.88
2023-02-23T14:51:03.521Z,13.88
2023-02-23T14:56:07.736Z,13.75
2023-02-23T15:01:17.120Z,13.38
2023-02-23T15:06:25.698Z,13.31
2023-02-23T15:11:34.409Z,13.25
2023-02-23T15:16:43.470Z,13.31
2023-02-23T15:21:52.572Z,13.19
2023-02-23T15:27:01.611Z,13.19
2023-02-23T15:32:10.664Z,13.13
2023-02-23T15:37:19.565Z,13
2023-02-23T15:42:28.467Z,12.81
2023-02-23T15:47:37.347Z,12.75
2023-02-23T15:52:46.350Z,12.69
2023-02-23T15:57:55.105Z,12.56
2023-02-23T16:03:04.091Z,12.5
2023-02-23T16:08:13.023Z,12.44
2023-02-23T16:13:21.946Z,12.37
2023-02-23T16:18:30.883Z,12.31
2023-02-23T16:23:40.158Z,12.25
2023-02-23T16:33:58.109Z,12.13
2023-02-23T16:39:07.211Z,12
2023-02-23T16:44:16.172Z,11.88
2023-02-23T16:49:25.013Z,11.75
2023-02-23T16:54:34.031Z,11.63
2023-02-23T16:59:43.026Z,11.5
2023-02-23T17:04:52.156Z,11.44
2023-02-23T17:10:00.981Z,11.31
2023-02-23T17:15:09.908Z,11.25
2023-02-23T17:20:18.853Z,11.12
2023-02-23T17:25:27.797Z,11.19
2023-02-23T17:30:36.723Z,11.12
2023-02-23T17:35:45.597Z,11.12
2023-02-23T17:40:54.608Z,11.12
2023-02-23T17:46:03.791Z,11.06
2023-02-23T17:51:12.690Z,11.06
2023-02-23T17:56:21.569Z,11
2023-02-23T18:01:30.592Z,10.94
2023-02-23T18:06:39.549Z,10.94
2023-02-23T18:11:48.609Z,10.94
2023-02-23T18:22:06.412Z,10.88
2023-02-23T18:27:15.414Z,10.88
2023-02-23T18:32:24.564Z,10.81
2023-02-23T18:37:33.411Z,10.75
2023-02-23T18:42:42.330Z,10.63
2023-02-23T18:52:49.317Z,10.38
2023-02-23T19:03:07.077Z,10.06
2023-02-23T19:08:16.140Z,10.06
2023-02-23T19:13:25.174Z,10.06
2023-02-23T19:18:37.512Z,10.06
2023-02-23T19:23:46.530Z,10.19
2023-02-23T19:34:04.443Z,10.31
2023-02-23T19:39:13.395Z,10.31
2023-02-23T19:44:22.425Z,10.31
2023-02-23T19:49:31.549Z,10.25
2023-02-23T19:54:40.489Z,10.13
2023-02-23T19:59:49.489Z,10.19
2023-02-23T20:04:58.638Z,10.19
2023-02-23T20:15:16.570Z,10.13
2023-02-23T20:20:25.543Z,10.06
2023-02-23T20:30:43.610Z,9.94
2023-02-23T20:41:01.229Z,9.81
2023-02-23T20:46:10.358Z,9.81
2023-02-23T20:51:19.793Z,9.81
2023-02-23T20:56:28.327Z,9.81
2023-02-23T21:06:46.238Z,9.69
2023-02-23T21:11:55.171Z,9.63
2023-02-23T21:17:04.341Z,9.56
2023-02-23T21:22:13.272Z,9.56
2023-02-23T21:27:22.258Z,9.5
2023-02-23T21:32:31.438Z,9.5
2023-02-23T21:42:38.549Z,9.44
2023-02-23T21:47:47.659Z,9.44
2023-02-23T21:52:56.658Z,9.44
2023-02-23T21:58:05.516Z,9.44
2023-02-23T22:03:14.365Z,9.38
2023-02-23T22:08:23.175Z,9.31
2023-02-23T22:13:32.251Z,9.25
2023-02-23T22:18:41.172Z,9.19
2023-02-23T22:23:50.139Z,9.19
2023-02-23T22:28:59.216Z,9.19
2023-02-23T22:34:08.099Z,9.19
2023-02-23T22:39:17.210Z,9.13
2023-02-23T22:44:26.186Z,9.06
2023-02-23T22:49:35.019Z,9.06
2023-02-23T22:54:44.083Z,9
2023-02-23T22:59:53.208Z,8.88
2023-02-23T23:05:02.035Z,8.75
2023-02-23T23:10:11.149Z,8.63
2023-02-23T23:15:20.252Z,8.5
2023-02-23T23:20:29.327Z,8.44
2023-02-23T23:25:38.425Z,8.5
2023-02-23T23:30:47.492Z,8.5
2023-02-23T23:35:56.383Z,8.5
2023-02-23T23:41:05.340Z,8.5
2023-02-23T23:46:14.582Z,8.5
2023-02-23T23:51:23.353Z,8.44
2023-02-23T23:56:32.309Z,8.44
